Terminal Aerodrome Forecast
Issued by NWS Portland, OR

Home | Current Version | Previous Version | Text Only | Print | Product List | Glossary On
Versions: 1 2 3 4 5 6 7 8 9 10 11 12 13 14 15 16 17 18 19 20 21 22 23 24 25 26 27 28 29 30
000
FTUS46 KPQR 242320
TAFTTD
TAF
KTTD 242320Z 2500/2524 31005KT P6SM FEW025 BKN045
     FM250400 VRB03KT P6SM OVC025
     FM250700 00000KT P6SM SCT015 OVC020
     FM251300 24002KT P6SM BKN015 OVC020=

USA.gov is the U.S. government's official web portal to all federal, state and local government web resources and services.